Time;durP1;ratioP1;P1;durP2;ratioP2;P2;SDS_P1;SDS_P2;PMS_P1;PMS_P2;Temp;Humidity;BMP_temperature;BMP_pressure;BME280_temperature;BME280_humidity;BME280_pressure;Samples;Min_cycle;Max_cycle;Signal;HPM_P1;HPM_P2
2021/12/08 00:02:15;;;;;;;;;;;;;;;26.61;64.07;101289.06;5079088;27;70391;-33
2021/12/08 00:04:46;;;;;;;;;;;;;;;26.52;63.97;101299.06;5077657;28;65702;-34
2021/12/08 00:07:16;;;;;;;;;;;;;;;26.46;64.08;101302.41;5076717;27;70071;-34
2021/12/08 00:09:59;;;;;;;;;;;;;;;26.37;64.29;101299.97;5080206;27;66603;-33
2021/12/08 00:15:17;;;;;;;;;;;;;;;26.34;65.01;101303.88;5078055;27;66517;-33
2021/12/08 00:17:47;;;;;;;;;;;;;;;26.28;64.84;101299.22;5078033;27;70108;-33
2021/12/08 00:20:17;;;;;;;;;;;;;;;26.25;64.71;101295.03;5076206;27;66320;-33
2021/12/08 00:22:47;;;;;;;;;;;;;;;26.21;65.09;101299.06;5078285;27;70100;-34
2021/12/08 00:25:17;;;;;;;;;;;;;;;26.32;65.88;101302.38;5078905;27;66536;-33
2021/12/08 00:27:47;;;;;;;;;;;;;;;26.45;66.13;101310.69;5079170;27;70238;-33
2021/12/08 00:30:17;;;;;;;;;;;;;;;26.54;66.74;101315.00;5080620;27;66347;-33
2021/12/08 00:32:48;;;;;;;;;;;;;;;26.63;66.59;101313.91;5083338;27;69274;-33
2021/12/08 00:35:18;;;;;;;;;;;;;;;26.69;65.91;101313.22;5081820;27;66253;-33
2021/12/08 00:37:48;;;;;;;;;;;;;;;26.76;65.58;101325.94;5082004;27;70195;-33
2021/12/08 00:40:19;;;;;;;;;;;;;;;26.81;65.26;101327.06;5080331;27;66671;-33
2021/12/08 00:42:49;;;;;;;;;;;;;;;26.86;65.18;101330.03;5081681;27;70493;-33
2021/12/08 00:45:21;;;;;;;;;;;;;;;26.92;65.03;101333.84;5082209;27;66675;-33
2021/12/08 00:47:52;;;;;;;;;;;;;;;26.96;64.87;101337.84;5082148;27;70260;-33
2021/12/08 00:50:24;;;;;;;;;;;;;;;27.00;64.59;101349.94;5079939;27;65272;-33
2021/12/08 00:52:55;;;;;;;;;;;;;;;27.05;64.53;101343.97;5081597;27;70035;-32
2021/12/08 00:55:26;;;;;;;;;;;;;;;27.07;64.47;101347.34;5081122;27;67499;-33
2021/12/08 00:57:56;;;;;;;;;;;;;;;27.10;64.26;101342.41;5082506;27;70108;-33
2021/12/08 01:00:47;;;;;;;;;;;;;;;27.11;64.38;101349.50;5081395;27;66499;-33
2021/12/08 01:03:18;;;;;;;;;;;;;;;27.17;64.40;101354.16;5081375;27;69048;-35
2021/12/08 01:05:53;;;;;;;;;;;;;;;27.16;64.13;101347.13;5083254;27;67226;-33
2021/12/08 01:08:24;;;;;;;;;;;;;;;27.20;64.23;101347.56;5080027;28;69963;-33
2021/12/08 01:10:56;;;;;;;;;;;;;;;27.23;63.96;101351.75;5082551;27;67418;-34
2021/12/08 01:13:26;;;;;;;;;;;;;;;27.25;64.18;101361.34;5081925;27;69604;-33
2021/12/08 01:15:57;;;;;;;;;;;;;;;27.28;64.10;101357.44;5081577;27;65551;-33
2021/12/08 01:18:29;;;;;;;;;;;;;;;27.30;64.08;101358.06;5080631;27;70877;-32
2021/12/08 01:21:00;;;;;;;;;;;;;;;27.31;64.05;101346.28;5082739;27;66973;-32
2021/12/08 01:23:30;;;;;;;;;;;;;;;27.33;63.94;101350.47;5081350;27;69949;-33
2021/12/08 01:26:01;;;;;;;;;;;;;;;27.34;63.96;101354.00;5064540;28;64616;-32
2021/12/08 01:28:32;;;;;;;;;;;;;;;27.37;63.97;101359.00;5068874;27;70023;-32
2021/12/08 01:31:04;;;;;;;;;;;;;;;27.34;63.88;101345.91;5082995;27;66927;-32
2021/12/08 01:33:36;;;;;;;;;;;;;;;27.39;64.10;101356.97;5066919;28;69869;-33
2021/12/08 01:36:07;;;;;;;;;;;;;;;27.33;64.10;101346.91;5081070;27;66050;-33
2021/12/08 01:38:38;;;;;;;;;;;;;;;27.44;63.83;101364.47;5081963;27;70027;-34
2021/12/08 01:41:08;;;;;;;;;;;;;;;27.43;63.76;101355.56;5081355;27;66777;-33
2021/12/08 01:43:43;;;;;;;;;;;;;;;27.47;63.82;101359.59;5079763;27;70337;-34
2021/12/08 01:46:14;;;;;;;;;;;;;;;27.48;63.88;101355.03;5082044;27;67216;-34
2021/12/08 01:48:45;;;;;;;;;;;;;;;27.51;64.01;101344.69;5082356;27;69543;-33
2021/12/08 01:51:17;;;;;;;;;;;;;;;27.48;63.63;101353.16;5078389;27;65331;-33
2021/12/08 01:53:52;;;;;;;;;;;;;;;27.51;64.10;101350.09;5080871;27;70238;-34
2021/12/08 01:56:23;;;;;;;;;;;;;;;27.51;63.81;101338.47;5083259;27;66646;-34
2021/12/08 01:58:53;;;;;;;;;;;;;;;27.57;63.59;101343.94;5084220;27;69652;-33
2021/12/08 02:01:25;;;;;;;;;;;;;;;27.59;63.92;101344.59;5082525;27;65197;-33
2021/12/08 02:04:08;;;;;;;;;;;;;;;27.35;64.00;101307.16;5080888;27;70140;-33
2021/12/08 02:06:50;;;;;;;;;;;;;;;27.62;63.91;101336.16;5078822;27;66631;-33
2021/12/08 02:09:20;;;;;;;;;;;;;;;27.66;63.67;101333.06;5080478;27;70135;-33
2021/12/08 02:11:54;;;;;;;;;;;;;;;27.67;63.59;101332.06;5080512;27;66297;-33
2021/12/08 02:14:24;;;;;;;;;;;;;;;27.69;63.75;101330.00;5080707;27;70337;-33
2021/12/08 02:16:55;;;;;;;;;;;;;;;27.70;63.86;101323.59;5079731;27;65828;-33
2021/12/08 02:19:25;;;;;;;;;;;;;;;27.72;63.69;101324.22;5079019;27;70270;-33
2021/12/08 02:21:55;;;;;;;;;;;;;;;27.74;63.74;101311.41;5079016;28;66267;-33
2021/12/08 02:24:25;;;;;;;;;;;;;;;27.75;63.70;101313.06;5079709;27;69052;-33
2021/12/08 02:26:57;;;;;;;;;;;;;;;27.79;63.54;101319.75;5081521;27;66063;-33
2021/12/08 02:29:41;;;;;;;;;;;;;;;27.79;63.82;101309.84;5081859;27;70439;-32
2021/12/08 02:48:54;;;;;;;;;;;;;;;27.96;63.79;101283.50;5065399;27;65672;-33
2021/12/08 02:51:24;;;;;;;;;;;;;;;27.98;63.47;101297.63;5080844;27;70029;-33
2021/12/08 02:53:54;;;;;;;;;;;;;;;28.01;63.45;101291.84;5080455;27;65438;-33
2021/12/08 02:56:25;;;;;;;;;;;;;;;28.03;63.34;101287.09;5078669;27;70469;-33
2021/12/08 02:58:58;;;;;;;;;;;;;;;28.06;63.64;101283.19;5063415;28;65995;-33
2021/12/08 03:01:29;;;;;;;;;;;;;;;28.04;63.71;101279.84;5080823;27;70625;-34
2021/12/08 03:03:59;;;;;;;;;;;;;;;28.10;63.57;101283.63;5078811;27;67013;-33
2021/12/08 03:06:30;;;;;;;;;;;;;;;28.12;63.38;101278.88;5079068;27;70906;-33
2021/12/08 03:09:01;;;;;;;;;;;;;;;28.14;63.76;101271.41;5081230;27;66412;-33
2021/12/08 03:11:33;;;;;;;;;;;;;;;28.16;63.50;101261.28;5079561;27;70115;-34
2021/12/08 03:14:11;;;;;;;;;;;;;;;28.18;63.37;101264.63;5079702;27;66227;-33
2021/12/08 03:16:45;;;;;;;;;;;;;;;28.20;63.47;101258.00;5080293;27;70481;-33
2021/12/08 03:19:17;;;;;;;;;;;;;;;28.23;63.38;101263.03;5080883;27;66783;-33
2021/12/08 03:21:47;;;;;;;;;;;;;;;28.27;63.30;101263.47;5080377;27;70456;-33
2021/12/08 03:27:10;;;;;;;;;;;;;;;28.28;63.49;101248.97;5068968;27;70314;-33
2021/12/08 03:29:56;;;;;;;;;;;;;;;28.32;63.16;101244.84;5077507;27;65795;-32
2021/12/08 03:32:36;;;;;;;;;;;;;;;28.35;63.41;101243.63;5078638;27;69709;-33
2021/12/08 03:35:09;;;;;;;;;;;;;;;28.38;63.25;101245.91;5080421;27;65991;-31
2021/12/08 03:37:43;;;;;;;;;;;;;;;28.40;63.00;101242.00;5079333;27;70556;-33
2021/12/08 03:40:15;;;;;;;;;;;;;;;28.42;63.39;101228.31;5080255;27;66857;-33
2021/12/08 03:42:47;;;;;;;;;;;;;;;28.44;63.16;101229.81;5080524;27;70260;-33
2021/12/08 03:45:22;;;;;;;;;;;;;;;28.47;62.97;101224.03;5079140;27;66361;-33
2021/12/08 03:48:00;;;;;;;;;;;;;;;28.50;62.93;101225.50;5078965;27;70113;-33
2021/12/08 03:50:32;;;;;;;;;;;;;;;28.51;62.98;101228.00;5080367;27;65777;-34
2021/12/08 03:53:02;;;;;;;;;;;;;;;28.54;63.16;101209.75;5080313;27;70633;-33
2021/12/08 03:55:33;;;;;;;;;;;;;;;28.57;63.01;101212.06;5080120;27;66255;-33
2021/12/08 03:58:03;;;;;;;;;;;;;;;28.59;62.90;101213.53;5079275;27;70537;-33
2021/12/08 04:00:33;;;;;;;;;;;;;;;28.62;63.08;101206.91;5080040;27;65276;-32
2021/12/08 04:03:04;;;;;;;;;;;;;;;28.65;62.72;101201.13;5080072;27;69404;-33
2021/12/08 04:08:26;;;;;;;;;;;;;;;28.68;62.64;101193.44;5081764;27;70105;-33
2021/12/08 04:10:56;;;;;;;;;;;;;;;28.71;62.85;101184.94;5083593;27;67046;-33
2021/12/08 04:13:36;;;;;;;;;;;;;;;28.74;62.67;101189.13;5082631;27;70398;-33
2021/12/08 04:16:08;;;;;;;;;;;;;;;28.72;62.71;101177.69;5084144;27;66882;-33
2021/12/08 04:18:39;;;;;;;;;;;;;;;28.80;62.73;101172.13;5082792;27;69837;-32
2021/12/08 04:21:10;;;;;;;;;;;;;;;28.83;62.66;101177.13;5082868;27;66654;-35
2021/12/08 04:23:42;;;;;;;;;;;;;;;28.85;62.54;101168.84;5083479;27;70319;-33
2021/12/08 04:26:18;;;;;;;;;;;;;;;28.88;62.63;101163.03;5082839;27;66970;-33
2021/12/08 04:28:48;;;;;;;;;;;;;;;28.91;62.45;101160.75;5083840;27;69067;-33
2021/12/08 04:31:20;;;;;;;;;;;;;;;28.93;62.64;101156.00;5081379;27;65309;-33
2021/12/08 04:33:55;;;;;;;;;;;;;;;28.98;62.18;101157.28;5081941;27;70091;-33
2021/12/08 04:36:26;;;;;;;;;;;;;;;29.01;62.37;101151.47;5082895;27;66017;-32
2021/12/08 04:38:58;;;;;;;;;;;;;;;29.03;62.43;101144.88;5082625;27;69946;-34
2021/12/08 04:41:36;;;;;;;;;;;;;;;29.03;61.90;101138.56;5081264;28;65880;-34
2021/12/08 04:44:27;;;;;;;;;;;;;;;29.10;62.28;101144.88;5081246;27;69245;-32
2021/12/08 04:47:27;;;;;;;;;;;;;;;29.14;61.68;101138.03;5083312;27;65365;-33
2021/12/08 05:10:45;;;;;;;;;;;;;;;29.43;60.79;101098.22;5082877;27;66255;-33
2021/12/08 05:13:17;;;;;;;;;;;;;;;29.46;60.71;101097.81;5082105;27;70396;-32
2021/12/08 05:15:53;;;;;;;;;;;;;;;29.50;61.23;101086.34;5082065;27;66774;-33
2021/12/08 05:18:28;;;;;;;;;;;;;;;29.52;60.44;101083.47;5081208;27;70265;-33
2021/12/08 05:21:03;;;;;;;;;;;;;;;29.55;61.07;101077.63;5081981;27;66552;-34
2021/12/08 05:23:35;;;;;;;;;;;;;;;29.60;61.03;101077.84;5080843;27;69161;-33
2021/12/08 05:26:08;;;;;;;;;;;;;;;29.62;61.07;101070.38;5083117;27;65772;-34
2021/12/08 05:28:42;;;;;;;;;;;;;;;29.67;60.51;101076.03;5095187;27;69448;-34
2021/12/08 05:31:23;;;;;;;;;;;;;;;29.68;60.48;101074.97;5077301;27;66207;-33
2021/12/08 05:33:53;;;;;;;;;;;;;;;29.72;60.63;101065.41;5074204;27;70444;-32
2021/12/08 05:36:24;;;;;;;;;;;;;;;29.75;60.75;101048.75;5081966;27;66472;-34
2021/12/08 05:38:55;;;;;;;;;;;;;;;29.78;60.74;101052.91;5082374;27;68974;-32
2021/12/08 05:41:28;;;;;;;;;;;;;;;29.77;60.62;101051.25;5082145;27;66150;-34
2021/12/08 05:43:59;;;;;;;;;;;;;;;29.81;60.42;101050.66;5059350;28;70200;-34
2021/12/08 05:46:31;;;;;;;;;;;;;;;29.84;60.45;101035.88;5074957;27;66322;-32
2021/12/08 05:49:03;;;;;;;;;;;;;;;29.88;60.06;101039.00;5080683;27;70139;-33
2021/12/08 05:51:40;;;;;;;;;;;;;;;29.91;60.53;101025.03;5064613;27;66600;-33
2021/12/08 05:54:13;;;;;;;;;;;;;;;29.91;60.10;101022.34;5068281;27;70137;-32
2021/12/08 05:56:44;;;;;;;;;;;;;;;29.94;60.55;101021.91;5080697;27;65390;-33
2021/12/08 05:59:14;;;;;;;;;;;;;;;29.96;60.23;101014.44;5082198;27;70110;-33
2021/12/08 06:01:44;;;;;;;;;;;;;;;29.98;60.28;101012.34;5081132;27;65755;-34
2021/12/08 06:04:30;;;;;;;;;;;;;;;30.01;59.75;101006.53;5082342;27;69766;-33
2021/12/08 06:07:27;;;;;;;;;;;;;;;30.03;60.11;100996.28;5080747;27;66572;-33
2021/12/08 06:10:01;;;;;;;;;;;;;;;30.05;59.61;101002.34;5079446;27;70846;-33
2021/12/08 06:12:33;;;;;;;;;;;;;;;30.09;60.17;100997.31;5079994;27;65427;-32
2021/12/08 06:15:04;;;;;;;;;;;;;;;30.10;59.55;100989.00;5090017;27;69976;-33
2021/12/08 06:17:35;;;;;;;;;;;;;;;30.13;60.06;100982.34;5085793;27;64952;-32
2021/12/08 06:20:06;;;;;;;;;;;;;;;30.14;59.90;100974.00;5081803;27;70215;-32
2021/12/08 06:22:36;;;;;;;;;;;;;;;30.18;59.46;100972.53;5081385;27;66498;-32
2021/12/08 06:25:07;;;;;;;;;;;;;;;30.20;59.21;100962.34;5080358;27;69346;-32
2021/12/08 06:27:40;;;;;;;;;;;;;;;30.23;59.79;100953.81;5079978;27;65704;-32
2021/12/08 06:30:12;;;;;;;;;;;;;;;30.26;59.13;100953.41;5073305;27;70789;-32
2021/12/08 06:32:43;;;;;;;;;;;;;;;30.30;59.13;100952.97;5087230;27;65992;-32
2021/12/08 06:35:16;;;;;;;;;;;;;;;30.33;59.01;100955.25;5070899;27;70360;-32
2021/12/08 06:37:48;;;;;;;;;;;;;;;30.34;59.69;100946.06;5088938;27;66660;-32
2021/12/08 06:40:18;;;;;;;;;;;;;;;30.37;59.64;100948.34;5080790;27;70146;-33
2021/12/08 06:42:52;;;;;;;;;;;;;;;30.38;59.28;100936.47;5081828;27;66183;-32
2021/12/08 06:45:26;;;;;;;;;;;;;;;30.41;59.55;100933.34;5079870;27;70661;-32
2021/12/08 06:47:57;;;;;;;;;;;;;;;30.42;59.24;100930.44;5082564;27;66983;-31
2021/12/08 06:50:29;;;;;;;;;;;;;;;30.45;58.90;100924.59;5090740;27;70100;-32
2021/12/08 06:53:00;;;;;;;;;;;;;;;30.46;59.11;100925.41;5080218;27;66373;-32
2021/12/08 06:55:40;;;;;;;;;;;;;;;30.49;58.92;100930.38;5080124;27;70522;-33
2021/12/08 06:58:22;;;;;;;;;;;;;;;30.51;59.12;100925.59;5080035;27;68256;-33
2021/12/08 07:04:34;;;;;;;;;;;;;;;30.57;59.14;100923.91;5072870;27;65266;-33
2021/12/08 07:07:42;;;;;;;;;;;;;;;30.59;58.85;100922.63;5079174;27;70250;-33
2021/12/08 07:10:19;;;;;;;;;;;;;;;30.62;59.16;100921.34;5080087;27;66675;-33
2021/12/08 07:12:52;;;;;;;;;;;;;;;30.64;58.64;100913.84;5077902;27;69830;-33
2021/12/08 07:15:28;;;;;;;;;;;;;;;30.64;59.06;100909.25;5079794;27;65482;-33
2021/12/08 07:18:01;;;;;;;;;;;;;;;30.66;58.98;100901.75;5079209;27;68896;-33
2021/12/08 07:20:42;;;;;;;;;;;;;;;30.68;58.52;100906.97;5080092;27;65447;-33
2021/12/08 07:23:18;;;;;;;;;;;;;;;30.70;58.99;100905.69;5062477;28;70098;-33
2021/12/08 07:25:49;;;;;;;;;;;;;;;30.69;58.90;100893.19;5080354;27;66281;-34
2021/12/08 07:28:20;;;;;;;;;;;;;;;30.75;58.71;100905.00;5079080;27;69493;-33
2021/12/08 07:30:56;;;;;;;;;;;;;;;30.76;58.66;100900.41;5079804;27;66474;-33
2021/12/08 07:33:27;;;;;;;;;;;;;;;30.78;58.29;100898.34;5078227;27;69238;-33
2021/12/08 07:35:59;;;;;;;;;;;;;;;30.80;59.00;100890.84;5080538;27;66111;-34
2021/12/08 07:38:30;;;;;;;;;;;;;;;30.81;58.80;100908.75;5079871;27;70402;-33
2021/12/08 07:41:09;;;;;;;;;;;;;;;30.82;58.57;100905.84;5074301;27;65428;-33
2021/12/08 07:43:42;;;;;;;;;;;;;;;30.85;58.38;100899.16;5083826;27;70427;-32
2021/12/08 07:46:17;;;;;;;;;;;;;;;30.86;58.90;100889.97;5083706;27;67120;-33
2021/12/08 07:48:55;;;;;;;;;;;;;;;30.87;58.48;100895.19;5083300;27;70162;-32
2021/12/08 07:51:25;;;;;;;;;;;;;;;30.82;58.86;100886.88;5083971;27;66433;-33
2021/12/08 07:54:04;;;;;;;;;;;;;;;30.89;58.60;100894.94;5077039;27;69250;-34
2021/12/08 07:56:38;;;;;;;;;;;;;;;30.89;59.02;100894.94;5084323;27;66307;-34
2021/12/08 07:59:09;;;;;;;;;;;;;;;30.91;58.67;100887.44;5080767;27;70078;-33
2021/12/08 08:01:43;;;;;;;;;;;;;;;30.91;58.82;100882.84;5083376;27;66292;-33
2021/12/08 08:04:17;;;;;;;;;;;;;;;30.91;59.18;100887.44;5083582;27;70643;-32
2021/12/08 08:06:51;;;;;;;;;;;;;;;30.92;58.36;100883.66;5082611;27;66270;-32
2021/12/08 08:09:23;;;;;;;;;;;;;;;30.94;58.78;100887.81;5082858;27;70241;-33
2021/12/08 08:11:57;;;;;;;;;;;;;;;30.95;59.04;100877.81;5084106;27;66990;-33
2021/12/08 08:14:30;;;;;;;;;;;;;;;30.96;58.18;100882.19;5081771;27;70434;-32
2021/12/08 08:17:00;;;;;;;;;;;;;;;30.97;58.97;100889.25;5083028;27;65500;-34
2021/12/08 08:19:33;;;;;;;;;;;;;;;30.99;58.48;100886.34;5081912;27;70621;-33
2021/12/08 08:22:05;;;;;;;;;;;;;;;30.96;58.82;100879.50;5083389;27;66598;-33
2021/12/08 08:24:36;;;;;;;;;;;;;;;30.99;58.65;100879.03;5083895;27;70015;-33
2021/12/08 08:27:08;;;;;;;;;;;;;;;30.99;59.01;100884.47;5082561;27;65582;-33
2021/12/08 08:29:38;;;;;;;;;;;;;;;31.01;58.76;100887.78;5083278;27;69512;-33
2021/12/08 08:32:18;;;;;;;;;;;;;;;31.01;59.03;100886.94;5083926;27;66753;-33
2021/12/08 08:34:50;;;;;;;;;;;;;;;31.01;58.89;100886.94;5082312;27;70274;-35
2021/12/08 08:37:21;;;;;;;;;;;;;;;31.00;59.37;100880.69;5082698;27;66621;-33
2021/12/08 08:39:56;;;;;;;;;;;;;;;31.02;58.68;100878.59;5082032;27;69019;-32
2021/12/08 08:42:29;;;;;;;;;;;;;;;31.02;58.69;100877.78;5083738;27;66647;-32
2021/12/08 08:45:03;;;;;;;;;;;;;;;31.00;59.64;100875.28;5083261;27;70108;-32
2021/12/08 08:47:43;;;;;;;;;;;;;;;31.02;58.60;100873.19;5082765;27;66861;-33
2021/12/08 08:50:16;;;;;;;;;;;;;;;31.02;59.45;100877.78;5083726;27;70074;-33
2021/12/08 08:52:49;;;;;;;;;;;;;;;31.03;59.11;100869.41;5080609;27;65482;-33
2021/12/08 08:55:46;;;;;;;;;;;;;;;31.02;59.04;100866.94;5082739;27;69721;-33
2021/12/08 08:58:18;;;;;;;;;;;;;;;31.03;59.03;100880.25;5080998;27;65790;-34
2021/12/08 09:00:56;;;;;;;;;;;;;;;31.00;58.63;100863.63;5079808;27;70524;-32
2021/12/08 09:03:29;;;;;;;;;;;;;;;31.03;58.75;100874.81;5079942;27;66040;-32
2021/12/08 09:06:05;;;;;;;;;;;;;;;31.04;59.38;100876.50;5080650;27;69789;-33
2021/12/08 09:08:38;;;;;;;;;;;;;;;31.05;58.58;100880.84;5064683;28;66977;-33
2021/12/08 09:11:12;;;;;;;;;;;;;;;31.00;58.64;100880.69;5081895;27;69663;-34
2021/12/08 09:13:48;;;;;;;;;;;;;;;31.06;58.99;100884.41;5082453;27;65988;-33
2021/12/08 09:16:28;;;;;;;;;;;;;;;31.06;58.79;100885.22;5096291;27;70074;-34
2021/12/08 09:19:06;;;;;;;;;;;;;;;31.04;59.33;100881.91;5082310;27;66926;-33
2021/12/08 09:21:47;;;;;;;;;;;;;;;31.06;58.53;100884.41;5079412;27;69913;-32
2021/12/08 09:24:44;;;;;;;;;;;;;;;31.06;58.81;100881.69;5097479;27;66384;-32
2021/12/08 09:27:17;;;;;;;;;;;;;;;31.07;59.11;100886.91;5082975;27;69663;-33
2021/12/08 09:29:54;;;;;;;;;;;;;;;31.06;59.22;100896.06;5080718;27;66217;-33
2021/12/08 09:32:33;;;;;;;;;;;;;;;31.07;58.18;100895.03;5080180;27;70283;-32
2021/12/08 09:35:10;;;;;;;;;;;;;;;31.06;58.61;100895.22;5080788;27;65554;-33
2021/12/08 09:37:44;;;;;;;;;;;;;;;31.07;58.87;100895.03;5080860;27;69300;-32
2021/12/08 09:40:22;;;;;;;;;;;;;;;31.08;58.45;100899.38;5081965;27;65671;-33
2021/12/08 09:42:54;;;;;;;;;;;;;;;31.07;59.13;100899.63;5081711;27;70457;-33
2021/12/08 09:45:31;;;;;;;;;;;;;;;31.06;58.89;100901.47;5081723;27;66975;-33
2021/12/08 09:48:03;;;;;;;;;;;;;;;31.07;58.42;100903.16;5081943;27;69802;-32
2021/12/08 09:50:35;;;;;;;;;;;;;;;31.07;58.76;100905.03;5083434;27;66584;-32
2021/12/08 09:53:06;;;;;;;;;;;;;;;31.04;59.19;100909.00;5089928;27;69972;-33
2021/12/08 09:55:37;;;;;;;;;;;;;;;31.06;58.83;100906.88;5081822;27;67487;-33
2021/12/08 09:58:07;;;;;;;;;;;;;;;31.06;58.87;100914.19;5080647;27;69831;-34
2021/12/08 10:00:39;;;;;;;;;;;;;;;31.05;59.19;100909.84;5082068;27;66095;-33
2021/12/08 10:03:13;;;;;;;;;;;;;;;31.04;59.43;100919.84;5082428;27;70647;-32
2021/12/08 10:05:43;;;;;;;;;;;;;;;31.04;58.79;100935.28;5081914;27;65607;-34
2021/12/08 10:08:13;;;;;;;;;;;;;;;31.02;59.32;100932.78;5089879;27;70173;-33
2021/12/08 10:10:45;;;;;;;;;;;;;;;31.02;58.73;100942.78;5081939;27;65618;-34
2021/12/08 10:13:16;;;;;;;;;;;;;;;31.02;59.47;100938.19;5084725;27;69310;-32
2021/12/08 10:15:46;;;;;;;;;;;;;;;31.03;59.40;100933.59;5080122;27;66411;-33
2021/12/08 10:18:24;;;;;;;;;;;;;;;30.99;59.45;100937.81;5072270;27;69191;-37
2021/12/08 10:20:55;;;;;;;;;;;;;;;30.98;59.35;100939.69;5074170;27;65233;-34
2021/12/08 10:23:36;;;;;;;;;;;;;;;30.99;59.85;100949.47;5080261;27;69624;-33
2021/12/08 10:26:12;;;;;;;;;;;;;;;30.96;59.73;100955.34;5080474;27;59948;-34
2021/12/08 10:28:47;;;;;;;;;;;;;;;30.99;59.79;100948.66;5071933;27;69717;-34
2021/12/08 10:31:26;;;;;;;;;;;;;;;30.97;59.51;100950.75;5078033;27;65679;-34
2021/12/08 10:37:08;;;;;;;;;;;;;;;30.94;59.97;100962.84;5061886;27;65254;-33
2021/12/08 10:39:46;;;;;;;;;;;;;;;30.92;59.96;100968.50;5081373;27;69883;-34
2021/12/08 10:42:26;;;;;;;;;;;;;;;30.89;59.92;100965.38;5069252;27;66568;-34
2021/12/08 10:45:15;;;;;;;;;;;;;;;30.90;60.09;100967.06;5079015;27;70776;-35
2021/12/08 10:47:56;;;;;;;;;;;;;;;30.90;60.01;100972.47;5076533;27;64867;-33
2021/12/08 10:56:24;;;;;;;;;;;;;;;30.81;60.18;100971.03;5080193;27;69770;-34
2021/12/08 10:59:18;;;;;;;;;;;;;;;30.87;60.43;100983.72;5078361;27;66817;-35
2021/12/08 11:02:13;;;;;;;;;;;;;;;;;;;;;
2021/12/08 11:05:21;;;;;;;;;;;;;;;30.64;60.58;100990.47;5080090;27;66332;-35
2021/12/08 11:08:02;;;;;;;;;;;;;;;30.61;60.73;100996.31;5080006;27;70582;-35
2021/12/08 11:11:01;;;;;;;;;;;;;;;30.54;60.84;101000.97;5075560;27;66402;-35
2021/12/08 11:13:48;;;;;;;;;;;;;;;30.54;59.96;101003.66;5078931;27;70291;-34
2021/12/08 11:16:50;;;;;;;;;;;;;;;30.53;61.77;101004.69;5077419;27;66004;-37
2021/12/08 11:19:43;;;;;;;;;;;;;;;30.52;62.26;101013.88;5076974;27;69851;-34
2021/12/08 11:22:29;;;;;;;;;;;;;;;30.50;62.46;101010.53;5079092;27;65933;-34
2021/12/08 11:25:07;;;;;;;;;;;;;;;30.47;63.02;101021.78;5079277;27;70408;-34
2021/12/08 11:28:03;;;;;;;;;;;;;;;30.47;64.16;101029.91;5079096;27;65803;-36
2021/12/08 11:30:34;;;;;;;;;;;;;;;30.48;64.25;101026.19;5072783;28;70559;-35
2021/12/08 11:33:22;;;;;;;;;;;;;;;30.46;64.29;101037.22;5073755;27;65872;-35
2021/12/08 11:39:31;;;;;;;;;;;;;;;30.44;64.71;101033.88;5054556;28;66295;-35
2021/12/08 11:42:25;;;;;;;;;;;;;;;30.45;64.39;101040.97;5079063;27;70975;-33
2021/12/08 11:44:57;;;;;;;;;;;;;;;30.32;64.33;101024.78;5043413;27;66548;-33
2021/12/08 11:47:33;;;;;;;;;;;;;;;30.43;64.82;101047.66;5077425;27;70318;-35
2021/12/08 11:50:11;;;;;;;;;;;;;;;30.42;64.53;101048.66;5080073;27;65438;-34
2021/12/08 11:52:41;;;;;;;;;;;;;;;30.43;64.97;101050.34;5078234;27;69051;-34
2021/12/08 11:55:16;;;;;;;;;;;;;;;30.42;64.77;101056.78;5079746;27;67721;-34
2021/12/08 11:57:48;;;;;;;;;;;;;;;30.43;65.06;101053.06;5076924;27;69865;-34
2021/12/08 12:00:31;;;;;;;;;;;;;;;30.42;64.76;101067.63;5079513;27;65437;-34
2021/12/08 12:03:10;;;;;;;;;;;;;;;30.42;64.71;101073.03;5078156;27;69824;-34
2021/12/08 12:05:44;;;;;;;;;;;;;;;30.39;65.03;101078.88;5079022;27;66984;-35
2021/12/08 12:08:20;;;;;;;;;;;;;;;30.40;64.99;101081.38;5076542;27;69487;-34
2021/12/08 12:10:53;;;;;;;;;;;;;;;30.38;64.94;101082.63;5078162;27;66315;-34
2021/12/08 12:13:23;;;;;;;;;;;;;;;30.36;65.51;101087.41;5079026;27;70546;-34
2021/12/08 12:15:53;;;;;;;;;;;;;;;30.36;65.15;101084.72;5076821;27;65958;-34
2021/12/08 12:18:30;;;;;;;;;;;;;;;30.35;65.51;101088.47;5078430;27;69303;-35
2021/12/08 12:21:18;;;;;;;;;;;;;;;30.25;65.14;101089.72;5072602;27;65547;-34
2021/12/08 12:23:50;;;;;;;;;;;;;;;30.34;65.54;101108.44;5077425;27;69242;-33
2021/12/08 12:26:28;;;;;;;;;;;;;;;30.35;65.14;101104.72;5079627;27;66462;-34
2021/12/08 12:29:17;;;;;;;;;;;;;;;30.32;65.22;101107.84;5080208;28;70319;-35
2021/12/08 12:31:53;;;;;;;;;;;;;;;30.34;65.29;101103.88;5083497;27;66504;-35
2021/12/08 12:34:25;;;;;;;;;;;;;;;30.35;66.19;101102.81;5082413;27;70479;-34
2021/12/08 12:36:56;;;;;;;;;;;;;;;30.38;67.04;101124.06;5082734;27;66784;-35
2021/12/08 12:39:28;;;;;;;;;;;;;;;30.37;67.84;101118.84;5083832;27;70350;-36
2021/12/08 12:41:58;;;;;;;;;;;;;;;30.40;64.95;101121.97;5081796;27;66565;-35
2021/12/08 12:44:30;;;;;;;;;;;;;;;30.37;62.76;101126.97;5082777;27;70149;-35
2021/12/08 12:47:11;;;;;;;;;;;;;;;30.37;61.80;101118.84;5081137;27;67259;-34
2021/12/08 12:49:44;;;;;;;;;;;;;;;30.33;61.58;101117.63;5084244;27;70245;-34
2021/12/08 12:52:16;;;;;;;;;;;;;;;30.33;61.53;101123.84;5084019;27;66655;-37
2021/12/08 12:54:47;;;;;;;;;;;;;;;30.32;59.75;101121.38;5081107;27;70249;-35
2021/12/08 12:57:17;;;;;;;;;;;;;;;30.30;59.81;101132.41;5082452;27;66419;-34
2021/12/08 12:59:53;;;;;;;;;;;;;;;30.32;60.23;101126.78;5082857;27;70583;-34
2021/12/08 13:02:36;;;;;;;;;;;;;;;30.30;59.76;101134.28;5071943;27;65623;-34
2021/12/08 13:05:12;;;;;;;;;;;;;;;30.28;60.00;101135.31;5082156;27;69989;-34
2021/12/08 13:08:03;;;;;;;;;;;;;;;30.28;59.47;101135.31;5079600;28;67192;-35
2021/12/08 13:10:39;;;;;;;;;;;;;;;30.27;59.48;101132.81;5077042;27;69696;-34
2021/12/08 13:13:14;;;;;;;;;;;;;;;30.30;59.81;101140.50;5074431;27;66138;-34
2021/12/08 13:15:48;;;;;;;;;;;;;;;30.25;59.61;101130.31;5078814;27;70543;-34
2021/12/08 13:18:54;;;;;;;;;;;;;;;30.30;59.80;101139.69;5076836;27;66036;-34
2021/12/08 13:21:46;;;;;;;;;;;;;;;30.28;59.59;101140.75;5077443;27;70307;-34
2021/12/08 13:24:45;;;;;;;;;;;;;;;30.30;59.92;101140.50;5077636;28;66385;-34
2021/12/08 13:27:32;;;;;;;;;;;;;;;30.32;60.59;101149.25;5079717;27;69514;-32
2021/12/08 13:30:19;;;;;;;;;;;;;;;30.31;59.99;101141.34;5078921;27;66791;-33
2021/12/08 13:33:07;;;;;;;;;;;;;;;30.28;59.55;101142.59;5076297;27;69673;-35
2021/12/08 13:35:58;;;;;;;;;;;;;;;30.28;60.58;101153.41;5076437;27;66392;-34
2021/12/08 13:39:05;;;;;;;;;;;;;;;30.27;61.45;101147.19;5078363;27;69289;-34
2021/12/08 13:42:31;;;;;;;;;;;;;;;30.24;62.18;101141.34;5077833;27;66474;-35
2021/12/08 13:45:12;;;;;;;;;;;;;;;30.23;63.88;101156.78;5061118;28;69100;-34
2021/12/08 13:48:04;;;;;;;;;;;;;;;30.21;64.77;101158.81;5078135;27;65904;-34
2021/12/08 13:51:19;;;;;;;;;;;;;;;30.12;64.64;101151.97;5060432;27;69902;-35
2021/12/08 13:54:12;;;;;;;;;;;;;;;29.99;61.13;101154.66;5065083;27;65432;-34
2021/12/08 13:56:48;;;;;;;;;;;;;;;29.70;58.49;101156.72;5078174;27;70549;-34
2021/12/08 13:59:40;;;;;;;;;;;;;;;29.53;55.21;101161.66;5078113;27;66787;-34
2021/12/08 14:02:51;;;;;;;;;;;;;;;29.34;53.67;101149.75;5081220;27;69993;-34
2021/12/08 14:05:32;;;;;;;;;;;;;;;29.14;51.86;101147.00;5080565;27;66767;-34
2021/12/08 14:08:35;;;;;;;;;;;;;;;29.01;50.95;101156.88;5060567;28;70059;-34
2021/12/08 14:11:13;;;;;;;;;;;;;;;28.85;50.40;101153.47;5080410;27;66167;-33
2021/12/08 14:13:53;;;;;;;;;;;;;;;28.80;50.28;101164.03;5074548;27;69263;-36
2021/12/08 14:16:25;;;;;;;;;;;;;;;28.70;51.28;101166.28;5081113;27;66272;-35
2021/12/08 14:19:00;;;;;;;;;;;;;;;28.61;52.22;101159.34;5079663;27;68720;-35
2021/12/08 14:21:43;;;;;;;;;;;;;;;28.48;53.55;101158.22;5079119;27;66796;-34
2021/12/08 14:24:29;;;;;;;;;;;;;;;28.38;54.54;101163.09;5076566;27;68462;-35
2021/12/08 14:27:03;;;;;;;;;;;;;;;28.27;54.91;101159.06;5079345;27;66345;-34